Nashville, Tennessee
Current Conditions -  °F | °C
As of 10:53 AM on Friday 19 Dec 2014 (Local Time) from KBNA Reporting Station
Broken Clouds Broken Clouds  
Wind Chill: 33°   Ceiling: 4600
Heat Index: 38°   Visibility: 10mi
Dew Point: 28°   Wind: 6mph
Humidity: 68%   Direction: NA
Pressure: 30.29"   Gusts: NA
Location:  36.11°N, 86.68°W
Report Text: KBNA 191653Z VRB05KT 10SM BKN046 03/M02 A3029 RMK AO2 SLP259 T00331022
Loading
Personal Weather Stations






























Interactive Weather Map New forecast layout! Learn more

10-Day Weather Forecast

Advertisements
Track Severe Weather on mobile